»·PEaware :: AAY138 KLAS-KIWA

AAY138 :: KLAS-KIWA

FLIGHT INFORMATION

Flight Status: Arrived
Operator:
Allegiant Air
More flights by this operator :: More flights under this callsign
Pilot: Patricio R. (14780)
Aircraft: AIRBUS A320
(A320)
More flights by this aircraft type
Origin: KLAS McCarran Intl
United States
Destination: KIWA Williams Gateway
United States
More flights between these airports :: More routes between these airports
Route: HOOVR6 DRK DSERT DSERT2
File this flight plan on PilotEdge
Remarks: PBN / A1B1C1D1O1S1 DOF / 180927 REG / N320SB EET / KZAB0023 OPR / AAY PER / C RMK / TCAS SIMBRIEF
Altitude:
(Current/Filed)
27,000ft
Speed:
(Current/Filed)
471kts
Departed: 27-Sep-18 04:00 PM
Arrived: 27-Sep-18 04:52 PM
Distance/Time
Traveled:
239nm/0:52
Distance/Time
To Go:
Arrived

Flight Plot

Page will automatically refresh every two minutes.

Flight plan parsing failed; only flown route is shown


Map Options




Map Legend


Flown Route
Filed Route
Departure Airport
Arrival Airport
Navaid (VOR, NDB)
Fix

Horizontal Profiles

Position Reports

Time Latitude Longitude Heading Altitude Ground
Speed
27-Sep-18 15:45 36.085052 -115.154765 48 2118ft 0kts
27-Sep-18 15:46 36.085052 -115.154765 48 2118ft 0kts
27-Sep-18 15:47 36.085052 -115.154765 48 2118ft 0kts
27-Sep-18 15:48 36.085052 -115.154765 48 2118ft 0kts
27-Sep-18 15:49 36.085052 -115.154765 48 2118ft 0kts
27-Sep-18 15:50 36.085052 -115.154765 48 2118ft 0kts
27-Sep-18 15:51 36.084751 -115.155180 48 2120ft 2kts
27-Sep-18 15:52 36.084662 -115.155302 48 2121ft 2kts
27-Sep-18 15:53 36.084662 -115.155302 48 2121ft 2kts
27-Sep-18 15:54 36.084250 -115.155501 334 2122ft 0kts
27-Sep-18 15:55 36.084250 -115.155501 334 2122ft 0kts
27-Sep-18 15:56 36.085264 -115.157065 328 2124ft 7kts
27-Sep-18 15:57 36.087397 -115.157708 27 2122ft 11kts
27-Sep-18 15:58 36.090785 -115.155778 22 2109ft 19kts
27-Sep-18 15:59 36.095950 -115.152845 25 2096ft 22kts
27-Sep-18 16:00 36.098047 -115.152581 295 2093ft 4kts
27-Sep-18 16:01 36.097411 -115.154222 205 2097ft 40kts
27-Sep-18 16:02 36.061409 -115.174910 206 3574ft 180kts
27-Sep-18 16:03 36.016597 -115.212934 232 5806ft 239kts
27-Sep-18 16:04 35.978482 -115.273035 232 7354ft 284kts
27-Sep-18 16:05 35.926785 -115.349879 212 10463ft 303kts
27-Sep-18 16:06 35.847820 -115.330284 129 11695ft 370kts
27-Sep-18 16:07 35.804298 -115.209937 112 13764ft 394kts
27-Sep-18 16:08 35.762971 -115.082610 112 15872ft 409kts
27-Sep-18 16:09 35.719578 -114.950689 112 17767ft 424kts
27-Sep-18 16:10 35.674306 -114.814904 112 19585ft 435kts
27-Sep-18 16:11 35.629285 -114.675052 102 21253ft 446kts
27-Sep-18 16:12 35.626463 -114.521336 88 22789ft 456kts
27-Sep-18 16:13 35.626913 -114.363737 88 24242ft 465kts
27-Sep-18 16:14 35.626968 -114.203797 89 25559ft 474kts
27-Sep-18 16:15 35.626797 -114.040757 89 26747ft 482kts
27-Sep-18 16:16 35.626401 -113.875651 89 27071ft 483kts
27-Sep-18 16:17 35.625781 -113.710651 89 27073ft 484kts
27-Sep-18 16:18 35.623347 -113.545319 96 27073ft 485kts
27-Sep-18 16:19 35.593734 -113.383366 102 27081ft 486kts
27-Sep-18 16:20 35.562379 -113.222614 103 27105ft 485kts
27-Sep-18 16:21 35.530929 -113.061768 103 27234ft 485kts
27-Sep-18 16:22 35.499173 -112.900750 102 27244ft 486kts
27-Sep-18 16:23 35.467174 -112.739736 102 27243ft 488kts
27-Sep-18 16:24 35.431561 -112.586448 0 27268ft 0kts
27-Sep-18 16:25 35.338565 -112.473733 155 27305ft 493kts
27-Sep-18 16:26 35.205879 -112.451612 184 27292ft 484kts
27-Sep-18 16:27 35.072168 -112.459267 184 27186ft 481kts
27-Sep-18 16:28 34.938980 -112.466887 183 27141ft 480kts
27-Sep-18 16:29 34.812139 -112.470127 172 27157ft 481kts
27-Sep-18 16:30 34.694356 -112.398519 133 27194ft 485kts
27-Sep-18 16:31 34.631723 -112.255978 110 27189ft 482kts
27-Sep-18 16:32 34.583913 -112.104774 110 27137ft 479kts
27-Sep-18 16:33 34.535912 -111.954186 110 27120ft 480kts
27-Sep-18 16:34 34.480434 -111.807368 127 27097ft 483kts
27-Sep-18 16:35 34.374333 -111.720290 165 26229ft 462kts
27-Sep-18 16:36 34.249503 -111.725151 195 25278ft 451kts
27-Sep-18 16:37 34.128794 -111.761636 195 24080ft 441kts
27-Sep-18 16:38 34.010477 -111.784852 170 21646ft 432kts
27-Sep-18 16:39 33.908441 -111.715558 145 19384ft 418kts
27-Sep-18 16:40 33.806101 -111.666126 188 17109ft 402kts
27-Sep-18 16:41 33.699886 -111.688427 190 15721ft 362kts
27-Sep-18 16:42 33.605907 -111.708161 190 12872ft 334kts
27-Sep-18 16:43 33.519989 -111.712678 170 10672ft 304kts
27-Sep-18 16:44 33.438708 -111.694894 170 8121ft 293kts
27-Sep-18 16:45 33.375719 -111.638599 133 5607ft 286kts
27-Sep-18 16:46 33.326221 -111.576205 133 5082ft 235kts
27-Sep-18 16:47 33.284162 -111.524258 133 4565ft 197kts
27-Sep-18 16:48 33.242920 -111.500196 215 3713ft 180kts
27-Sep-18 16:49 33.221183 -111.548686 294 3369ft 153kts
27-Sep-18 16:50 33.248070 -111.584868 314 2758ft 145kts
27-Sep-18 16:51 33.276756 -111.618209 315 1993ft 143kts
27-Sep-18 16:52 33.304553 -111.650625 314 1381ft 111kts
27-Sep-18 16:53 33.313645 -111.661230 315 1369ft 42kts
27-Sep-18 16:54 33.317264 -111.669957 270 1357ft 28kts
27-Sep-18 16:55 33.315360 -111.672241 136 1353ft 17kts
27-Sep-18 16:56 33.311210 -111.667449 156 1360ft 15kts
27-Sep-18 16:57 33.307934 -111.667636 258 1361ft 3kts
27-Sep-18 16:58 33.307923 -111.668123 270 1360ft 0kts

Navigation Log

Ident Type
Flight plan parsing failed, navigation log unavailable